sensor_id;sensor_type;location;lat;lon;timestamp;P1;durP1;ratioP1;P2;durP2;ratioP2
59054;SDS011;44845;51.444;7.460;2022-10-29T00:01:47;18.20;;;5.40;;
59054;SDS011;44845;51.444;7.460;2022-10-29T00:04:12;18.63;;;5.32;;
59054;SDS011;44845;51.444;7.460;2022-10-29T00:06:38;22.65;;;5.47;;
59054;SDS011;44845;51.444;7.460;2022-10-29T00:09:03;15.18;;;5.75;;
59054;SDS011;44845;51.444;7.460;2022-10-29T00:11:29;17.65;;;4.93;;
59054;SDS011;44845;51.444;7.460;2022-10-29T00:13:56;21.80;;;5.25;;
59054;SDS011;44845;51.444;7.460;2022-10-29T00:16:24;22.40;;;5.60;;
59054;SDS011;44845;51.444;7.460;2022-10-29T00:18:52;25.48;;;5.78;;
59054;SDS011;44845;51.444;7.460;2022-10-29T00:21:19;14.93;;;5.43;;
59054;SDS011;44845;51.444;7.460;2022-10-29T00:23:47;16.88;;;5.85;;
59054;SDS011;44845;51.444;7.460;2022-10-29T00:26:13;19.10;;;5.97;;
59054;SDS011;44845;51.444;7.460;2022-10-29T00:28:40;18.65;;;5.68;;
59054;SDS011;44845;51.444;7.460;2022-10-29T00:31:06;20.25;;;5.82;;
59054;SDS011;44845;51.444;7.460;2022-10-29T00:33:34;19.85;;;5.95;;
59054;SDS011;44845;51.444;7.460;2022-10-29T00:36:00;18.15;;;5.10;;
59054;SDS011;44845;51.444;7.460;2022-10-29T00:38:27;16.00;;;5.63;;
59054;SDS011;44845;51.444;7.460;2022-10-29T00:40:53;17.65;;;5.93;;
59054;SDS011;44845;51.444;7.460;2022-10-29T00:43:20;21.92;;;6.10;;
59054;SDS011;44845;51.444;7.460;2022-10-29T00:45:53;16.23;;;5.65;;
59054;SDS011;44845;51.444;7.460;2022-10-29T00:48:26;18.92;;;5.40;;
59054;SDS011;44845;51.444;7.460;2022-10-29T00:50:55;15.90;;;5.88;;
59054;SDS011;44845;51.444;7.460;2022-10-29T00:53:23;16.00;;;5.40;;
59054;SDS011;44845;51.444;7.460;2022-10-29T00:55:52;19.00;;;5.07;;
59054;SDS011;44845;51.444;7.460;2022-10-29T00:58:18;20.05;;;5.47;;
59054;SDS011;44845;51.444;7.460;2022-10-29T01:00:45;20.92;;;5.82;;
59054;SDS011;44845;51.444;7.460;2022-10-29T01:03:10;15.27;;;5.30;;
59054;SDS011;44845;51.444;7.460;2022-10-29T01:05:36;19.38;;;5.43;;
59054;SDS011;44845;51.444;7.460;2022-10-29T01:08:02;20.02;;;4.88;;
59054;SDS011;44845;51.444;7.460;2022-10-29T01:21:37;16.98;;;5.80;;
59054;SDS011;44845;51.444;7.460;2022-10-29T01:32:16;28.25;;;5.93;;
59054;SDS011;44845;51.444;7.460;2022-10-29T01:40:27;19.15;;;5.75;;
59054;SDS011;44845;51.444;7.460;2022-10-29T01:43:10;30.92;;;6.32;;
59054;SDS011;44845;51.444;7.460;2022-10-29T01:45:44;16.75;;;5.68;;
59054;SDS011;44845;51.444;7.460;2022-10-29T01:48:15;18.33;;;5.65;;
59054;SDS011;44845;51.444;7.460;2022-10-29T01:50:49;17.25;;;5.45;;
59054;SDS011;44845;51.444;7.460;2022-10-29T01:53:18;16.45;;;5.47;;
59054;SDS011;44845;51.444;7.460;2022-10-29T01:55:45;14.80;;;5.63;;
59054;SDS011;44845;51.444;7.460;2022-10-29T01:58:10;16.70;;;5.63;;
59054;SDS011;44845;51.444;7.460;2022-10-29T02:06:40;16.63;;;5.97;;
59054;SDS011;44845;51.444;7.460;2022-10-29T02:09:20;20.80;;;5.57;;
59054;SDS011;44845;51.444;7.460;2022-10-29T02:11:58;13.40;;;5.43;;
59054;SDS011;44845;51.444;7.460;2022-10-29T02:14:36;22.48;;;6.20;;
59054;SDS011;44845;51.444;7.460;2022-10-29T02:17:05;17.65;;;6.07;;
59054;SDS011;44845;51.444;7.460;2022-10-29T02:19:32;26.33;;;6.35;;
59054;SDS011;44845;51.444;7.460;2022-10-29T02:21:58;21.67;;;5.63;;
59054;SDS011;44845;51.444;7.460;2022-10-29T02:24:24;19.13;;;5.72;;
59054;SDS011;44845;51.444;7.460;2022-10-29T02:26:50;18.48;;;6.03;;
59054;SDS011;44845;51.444;7.460;2022-10-29T02:29:16;15.93;;;5.63;;
59054;SDS011;44845;51.444;7.460;2022-10-29T02:31:41;13.52;;;5.93;;
59054;SDS011;44845;51.444;7.460;2022-10-29T02:34:06;17.60;;;5.70;;
59054;SDS011;44845;51.444;7.460;2022-10-29T02:36:32;19.67;;;5.70;;
59054;SDS011;44845;51.444;7.460;2022-10-29T02:38:57;21.33;;;6.63;;
59054;SDS011;44845;51.444;7.460;2022-10-29T02:41:22;22.65;;;6.90;;
59054;SDS011;44845;51.444;7.460;2022-10-29T02:43:48;24.80;;;6.43;;
59054;SDS011;44845;51.444;7.460;2022-10-29T02:46:14;19.63;;;6.30;;
59054;SDS011;44845;51.444;7.460;2022-10-29T02:48:41;25.13;;;6.88;;
59054;SDS011;44845;51.444;7.460;2022-10-29T02:51:07;17.52;;;5.80;;
59054;SDS011;44845;51.444;7.460;2022-10-29T02:53:32;21.42;;;6.82;;
59054;SDS011;44845;51.444;7.460;2022-10-29T02:55:58;17.80;;;6.80;;
59054;SDS011;44845;51.444;7.460;2022-10-29T02:58:23;16.88;;;5.80;;
59054;SDS011;44845;51.444;7.460;2022-10-29T03:00:49;16.95;;;6.60;;
59054;SDS011;44845;51.444;7.460;2022-10-29T03:03:15;12.40;;;6.03;;
59054;SDS011;44845;51.444;7.460;2022-10-29T03:05:40;13.00;;;5.38;;
59054;SDS011;44845;51.444;7.460;2022-10-29T03:08:05;20.20;;;6.18;;
59054;SDS011;44845;51.444;7.460;2022-10-29T03:10:31;17.30;;;6.03;;
59054;SDS011;44845;51.444;7.460;2022-10-29T03:12:59;13.20;;;6.32;;
59054;SDS011;44845;51.444;7.460;2022-10-29T03:15:24;14.88;;;6.03;;
59054;SDS011;44845;51.444;7.460;2022-10-29T03:17:49;15.27;;;6.57;;
59054;SDS011;44845;51.444;7.460;2022-10-29T03:20:15;18.75;;;5.85;;
59054;SDS011;44845;51.444;7.460;2022-10-29T03:22:40;16.10;;;6.22;;
59054;SDS011;44845;51.444;7.460;2022-10-29T03:25:06;15.95;;;6.63;;
59054;SDS011;44845;51.444;7.460;2022-10-29T03:27:31;17.30;;;5.68;;
59054;SDS011;44845;51.444;7.460;2022-10-29T03:29:56;19.25;;;6.90;;
59054;SDS011;44845;51.444;7.460;2022-10-29T03:32:22;20.20;;;6.53;;
59054;SDS011;44845;51.444;7.460;2022-10-29T03:34:47;17.90;;;6.63;;
59054;SDS011;44845;51.444;7.460;2022-10-29T03:37:12;16.88;;;6.70;;
59054;SDS011;44845;51.444;7.460;2022-10-29T03:39:38;16.42;;;7.00;;
59054;SDS011;44845;51.444;7.460;2022-10-29T03:42:03;16.88;;;6.18;;
59054;SDS011;44845;51.444;7.460;2022-10-29T03:44:29;16.23;;;6.90;;
59054;SDS011;44845;51.444;7.460;2022-10-29T03:46:55;22.30;;;6.35;;
59054;SDS011;44845;51.444;7.460;2022-10-29T03:49:20;25.65;;;5.85;;
59054;SDS011;44845;51.444;7.460;2022-10-29T03:51:45;18.45;;;6.57;;
59054;SDS011;44845;51.444;7.460;2022-10-29T03:54:11;17.25;;;6.28;;
59054;SDS011;44845;51.444;7.460;2022-10-29T03:56:36;19.25;;;6.15;;
59054;SDS011;44845;51.444;7.460;2022-10-29T03:59:01;16.10;;;6.68;;
59054;SDS011;44845;51.444;7.460;2022-10-29T04:01:27;25.38;;;6.78;;
59054;SDS011;44845;51.444;7.460;2022-10-29T04:03:52;14.18;;;5.70;;
59054;SDS011;44845;51.444;7.460;2022-10-29T04:06:17;12.95;;;6.28;;
59054;SDS011;44845;51.444;7.460;2022-10-29T04:08:43;21.25;;;6.35;;
59054;SDS011;44845;51.444;7.460;2022-10-29T04:11:12;15.73;;;6.65;;
59054;SDS011;44845;51.444;7.460;2022-10-29T04:13:38;21.98;;;6.88;;
59054;SDS011;44845;51.444;7.460;2022-10-29T04:16:03;13.50;;;5.95;;
59054;SDS011;44845;51.444;7.460;2022-10-29T04:18:29;19.05;;;6.10;;
59054;SDS011;44845;51.444;7.460;2022-10-29T04:20:57;16.75;;;5.95;;
59054;SDS011;44845;51.444;7.460;2022-10-29T04:23:25;16.45;;;6.57;;
59054;SDS011;44845;51.444;7.460;2022-10-29T04:25:56;14.80;;;5.80;;
59054;SDS011;44845;51.444;7.460;2022-10-29T04:28:23;16.85;;;5.38;;
59054;SDS011;44845;51.444;7.460;2022-10-29T04:30:49;16.98;;;5.72;;
59054;SDS011;44845;51.444;7.460;2022-10-29T04:33:15;19.13;;;5.80;;
59054;SDS011;44845;51.444;7.460;2022-10-29T04:35:40;19.33;;;6.13;;
59054;SDS011;44845;51.444;7.460;2022-10-29T04:38:09;11.07;;;5.13;;
59054;SDS011;44845;51.444;7.460;2022-10-29T04:40:35;14.15;;;5.63;;
59054;SDS011;44845;51.444;7.460;2022-10-29T04:43:00;18.20;;;5.82;;
59054;SDS011;44845;51.444;7.460;2022-10-29T04:45:26;11.60;;;5.70;;
59054;SDS011;44845;51.444;7.460;2022-10-29T04:47:58;13.85;;;5.60;;
59054;SDS011;44845;51.444;7.460;2022-10-29T04:50:24;16.50;;;6.40;;
59054;SDS011;44845;51.444;7.460;2022-10-29T04:52:50;15.50;;;6.22;;
59054;SDS011;44845;51.444;7.460;2022-10-29T04:55:15;22.50;;;5.65;;
59054;SDS011;44845;51.444;7.460;2022-10-29T04:57:40;23.75;;;5.65;;
59054;SDS011;44845;51.444;7.460;2022-10-29T05:00:06;19.17;;;5.63;;
59054;SDS011;44845;51.444;7.460;2022-10-29T05:02:32;20.15;;;5.95;;
59054;SDS011;44845;51.444;7.460;2022-10-29T05:04:57;20.90;;;5.75;;
59054;SDS011;44845;51.444;7.460;2022-10-29T05:07:22;16.45;;;6.15;;
59054;SDS011;44845;51.444;7.460;2022-10-29T05:09:48;18.52;;;5.95;;
59054;SDS011;44845;51.444;7.460;2022-10-29T05:12:13;19.50;;;6.32;;
59054;SDS011;44845;51.444;7.460;2022-10-29T05:14:38;16.52;;;5.35;;
59054;SDS011;44845;51.444;7.460;2022-10-29T05:17:04;18.40;;;5.60;;
59054;SDS011;44845;51.444;7.460;2022-10-29T05:19:29;15.60;;;5.63;;
59054;SDS011;44845;51.444;7.460;2022-10-29T05:21:54;15.90;;;5.57;;
59054;SDS011;44845;51.444;7.460;2022-10-29T05:24:20;21.88;;;6.38;;
59054;SDS011;44845;51.444;7.460;2022-10-29T05:26:45;18.35;;;6.10;;
59054;SDS011;44845;51.444;7.460;2022-10-29T05:29:10;14.60;;;6.05;;
59054;SDS011;44845;51.444;7.460;2022-10-29T05:31:36;16.58;;;5.95;;
59054;SDS011;44845;51.444;7.460;2022-10-29T05:34:01;18.92;;;6.20;;
59054;SDS011;44845;51.444;7.460;2022-10-29T05:36:26;18.10;;;5.90;;
59054;SDS011;44845;51.444;7.460;2022-10-29T05:38:52;18.50;;;5.93;;
59054;SDS011;44845;51.444;7.460;2022-10-29T05:41:17;17.90;;;6.65;;
59054;SDS011;44845;51.444;7.460;2022-10-29T05:43:42;15.77;;;5.80;;
59054;SDS011;44845;51.444;7.460;2022-10-29T05:46:08;17.92;;;5.15;;
59054;SDS011;44845;51.444;7.460;2022-10-29T05:48:33;14.27;;;6.00;;
59054;SDS011;44845;51.444;7.460;2022-10-29T05:50:58;13.93;;;5.75;;
59054;SDS011;44845;51.444;7.460;2022-10-29T05:53:24;16.15;;;5.60;;
59054;SDS011;44845;51.444;7.460;2022-10-29T05:55:49;15.70;;;6.03;;
59054;SDS011;44845;51.444;7.460;2022-10-29T05:58:14;14.75;;;5.10;;
59054;SDS011;44845;51.444;7.460;2022-10-29T06:00:41;17.67;;;5.65;;
59054;SDS011;44845;51.444;7.460;2022-10-29T06:03:11;16.17;;;5.63;;
59054;SDS011;44845;51.444;7.460;2022-10-29T06:05:39;19.73;;;5.53;;
59054;SDS011;44845;51.444;7.460;2022-10-29T06:08:05;15.55;;;5.15;;
59054;SDS011;44845;51.444;7.460;2022-10-29T06:10:31;16.45;;;5.05;;
59054;SDS011;44845;51.444;7.460;2022-10-29T06:12:56;17.73;;;5.45;;
59054;SDS011;44845;51.444;7.460;2022-10-29T06:15:22;17.30;;;5.43;;
59054;SDS011;44845;51.444;7.460;2022-10-29T06:17:47;14.63;;;4.97;;
59054;SDS011;44845;51.444;7.460;2022-10-29T06:20:14;23.15;;;5.55;;
59054;SDS011;44845;51.444;7.460;2022-10-29T06:22:40;17.92;;;5.28;;
59054;SDS011;44845;51.444;7.460;2022-10-29T06:25:06;20.55;;;5.20;;
59054;SDS011;44845;51.444;7.460;2022-10-29T06:27:31;19.98;;;5.32;;
59054;SDS011;44845;51.444;7.460;2022-10-29T06:29:57;16.17;;;5.03;;
59054;SDS011;44845;51.444;7.460;2022-10-29T06:32:22;13.45;;;5.10;;
59054;SDS011;44845;51.444;7.460;2022-10-29T06:34:48;14.80;;;4.57;;
59054;SDS011;44845;51.444;7.460;2022-10-29T06:37:13;14.90;;;4.65;;
59054;SDS011;44845;51.444;7.460;2022-10-29T06:39:38;14.43;;;4.60;;
59054;SDS011;44845;51.444;7.460;2022-10-29T06:42:04;11.90;;;4.72;;
59054;SDS011;44845;51.444;7.460;2022-10-29T06:44:29;21.63;;;4.88;;
59054;SDS011;44845;51.444;7.460;2022-10-29T06:46:54;14.50;;;4.75;;
59054;SDS011;44845;51.444;7.460;2022-10-29T06:49:20;12.88;;;4.40;;
59054;SDS011;44845;51.444;7.460;2022-10-29T06:51:46;13.18;;;4.70;;
59054;SDS011;44845;51.444;7.460;2022-10-29T06:54:11;14.02;;;4.72;;
59054;SDS011;44845;51.444;7.460;2022-10-29T06:56:37;15.27;;;4.63;;
59054;SDS011;44845;51.444;7.460;2022-10-29T06:59:02;11.30;;;4.50;;
59054;SDS011;44845;51.444;7.460;2022-10-29T07:01:27;18.27;;;5.18;;
59054;SDS011;44845;51.444;7.460;2022-10-29T07:03:54;14.48;;;5.13;;
59054;SDS011;44845;51.444;7.460;2022-10-29T07:06:19;20.75;;;5.07;;
59054;SDS011;44845;51.444;7.460;2022-10-29T07:08:45;23.48;;;5.05;;
59054;SDS011;44845;51.444;7.460;2022-10-29T07:11:10;18.52;;;4.63;;
59054;SDS011;44845;51.444;7.460;2022-10-29T07:13:36;11.70;;;4.30;;
59054;SDS011;44845;51.444;7.460;2022-10-29T07:16:01;12.45;;;4.60;;
59054;SDS011;44845;51.444;7.460;2022-10-29T07:18:27;15.13;;;4.68;;
59054;SDS011;44845;51.444;7.460;2022-10-29T07:20:52;13.77;;;4.35;;
59054;SDS011;44845;51.444;7.460;2022-10-29T07:23:17;12.82;;;4.57;;
59054;SDS011;44845;51.444;7.460;2022-10-29T07:25:43;12.80;;;4.68;;
59054;SDS011;44845;51.444;7.460;2022-10-29T07:28:12;14.10;;;4.45;;
59054;SDS011;44845;51.444;7.460;2022-10-29T07:30:40;13.13;;;4.72;;
59054;SDS011;44845;51.444;7.460;2022-10-29T07:33:06;10.48;;;4.38;;
59054;SDS011;44845;51.444;7.460;2022-10-29T07:35:32;15.52;;;4.30;;
59054;SDS011;44845;51.444;7.460;2022-10-29T07:37:59;17.55;;;4.65;;
59054;SDS011;44845;51.444;7.460;2022-10-29T07:40:25;11.85;;;4.40;;
59054;SDS011;44845;51.444;7.460;2022-10-29T07:42:51;16.92;;;4.18;;
59054;SDS011;44845;51.444;7.460;2022-10-29T07:45:17;15.40;;;4.22;;
59054;SDS011;44845;51.444;7.460;2022-10-29T07:47:42;15.23;;;4.85;;
59054;SDS011;44845;51.444;7.460;2022-10-29T07:50:08;16.40;;;4.93;;
59054;SDS011;44845;51.444;7.460;2022-10-29T07:52:33;13.45;;;4.15;;
59054;SDS011;44845;51.444;7.460;2022-10-29T07:54:58;17.02;;;4.57;;
59054;SDS011;44845;51.444;7.460;2022-10-29T07:57:26;16.00;;;4.10;;
59054;SDS011;44845;51.444;7.460;2022-10-29T07:59:51;14.13;;;4.72;;
59054;SDS011;44845;51.444;7.460;2022-10-29T08:02:16;14.40;;;4.43;;
59054;SDS011;44845;51.444;7.460;2022-10-29T08:04:42;20.20;;;4.60;;
59054;SDS011;44845;51.444;7.460;2022-10-29T08:07:07;13.35;;;4.30;;
59054;SDS011;44845;51.444;7.460;2022-10-29T08:09:33;10.85;;;4.32;;
59054;SDS011;44845;51.444;7.460;2022-10-29T08:11:58;14.88;;;4.20;;
59054;SDS011;44845;51.444;7.460;2022-10-29T08:14:23;17.98;;;4.35;;
59054;SDS011;44845;51.444;7.460;2022-10-29T08:16:49;11.00;;;4.38;;
59054;SDS011;44845;51.444;7.460;2022-10-29T08:19:17;13.95;;;4.65;;
59054;SDS011;44845;51.444;7.460;2022-10-29T08:21:42;19.20;;;4.25;;
59054;SDS011;44845;51.444;7.460;2022-10-29T08:24:08;13.30;;;4.63;;
59054;SDS011;44845;51.444;7.460;2022-10-29T08:26:34;20.33;;;4.30;;
59054;SDS011;44845;51.444;7.460;2022-10-29T08:28:59;15.25;;;5.05;;
59054;SDS011;44845;51.444;7.460;2022-10-29T08:31:25;18.88;;;4.72;;
59054;SDS011;44845;51.444;7.460;2022-10-29T08:33:50;21.80;;;4.63;;
59054;SDS011;44845;51.444;7.460;2022-10-29T08:36:15;14.25;;;4.50;;
59054;SDS011;44845;51.444;7.460;2022-10-29T08:38:41;17.27;;;4.20;;
59054;SDS011;44845;51.444;7.460;2022-10-29T08:46:50;16.40;;;4.43;;
59054;SDS011;44845;51.444;7.460;2022-10-29T08:49:20;17.25;;;4.70;;
59054;SDS011;44845;51.444;7.460;2022-10-29T08:51:59;18.25;;;4.40;;
59054;SDS011;44845;51.444;7.460;2022-10-29T08:54:29;14.27;;;4.53;;
59054;SDS011;44845;51.444;7.460;2022-10-29T08:56:58;12.88;;;3.97;;
59054;SDS011;44845;51.444;7.460;2022-10-29T08:59:31;9.32;;;4.25;;
59054;SDS011;44845;51.444;7.460;2022-10-29T09:02:01;12.82;;;4.03;;
59054;SDS011;44845;51.444;7.460;2022-10-29T09:04:33;15.30;;;4.28;;
59054;SDS011;44845;51.444;7.460;2022-10-29T09:20:43;11.52;;;4.10;;
59054;SDS011;44845;51.444;7.460;2022-10-29T09:28:42;21.20;;;4.47;;
59054;SDS011;44845;51.444;7.460;2022-10-29T09:33:42;17.92;;;4.20;;
59054;SDS011;44845;51.444;7.460;2022-10-29T09:36:12;12.48;;;3.53;;
59054;SDS011;44845;51.444;7.460;2022-10-29T09:38:50;15.88;;;4.00;;
59054;SDS011;44845;51.444;7.460;2022-10-29T09:41:21;13.50;;;4.65;;
59054;SDS011;44845;51.444;7.460;2022-10-29T09:49:50;12.68;;;3.40;;
59054;SDS011;44845;51.444;7.460;2022-10-29T09:52:38;13.15;;;3.78;;
59054;SDS011;44845;51.444;7.460;2022-10-29T09:55:05;14.57;;;4.07;;
59054;SDS011;44845;51.444;7.460;2022-10-29T09:57:35;11.43;;;3.72;;
59054;SDS011;44845;51.444;7.460;2022-10-29T10:00:05;9.75;;;3.58;;
59054;SDS011;44845;51.444;7.460;2022-10-29T10:02:44;11.95;;;3.65;;
59054;SDS011;44845;51.444;7.460;2022-10-29T10:05:18;20.98;;;3.85;;
59054;SDS011;44845;51.444;7.460;2022-10-29T10:10:51;14.40;;;3.72;;
59054;SDS011;44845;51.444;7.460;2022-10-29T10:13:16;15.45;;;3.88;;
59054;SDS011;44845;51.444;7.460;2022-10-29T10:15:47;14.30;;;3.75;;
59054;SDS011;44845;51.444;7.460;2022-10-29T10:18:17;16.70;;;4.10;;
59054;SDS011;44845;51.444;7.460;2022-10-29T10:20:46;18.15;;;3.78;;
59054;SDS011;44845;51.444;7.460;2022-10-29T10:25:53;9.52;;;3.83;;
59054;SDS011;44845;51.444;7.460;2022-10-29T10:28:21;12.00;;;3.40;;
59054;SDS011;44845;51.444;7.460;2022-10-29T10:31:04;10.32;;;3.65;;
59054;SDS011;44845;51.444;7.460;2022-10-29T10:33:30;12.88;;;3.53;;
59054;SDS011;44845;51.444;7.460;2022-10-29T10:36:01;17.48;;;3.50;;
59054;SDS011;44845;51.444;7.460;2022-10-29T10:38:39;9.68;;;3.22;;
59054;SDS011;44845;51.444;7.460;2022-10-29T10:41:10;17.05;;;3.83;;
59054;SDS011;44845;51.444;7.460;2022-10-29T10:43:36;23.00;;;4.00;;
59054;SDS011;44845;51.444;7.460;2022-10-29T10:46:09;10.15;;;3.30;;
59054;SDS011;44845;51.444;7.460;2022-10-29T10:48:57;9.10;;;3.50;;
59054;SDS011;44845;51.444;7.460;2022-10-29T10:51:23;14.55;;;3.30;;
59054;SDS011;44845;51.444;7.460;2022-10-29T10:53:53;14.40;;;3.97;;
59054;SDS011;44845;51.444;7.460;2022-10-29T10:56:20;13.32;;;3.42;;
59054;SDS011;44845;51.444;7.460;2022-10-29T10:58:48;11.82;;;3.42;;
59054;SDS011;44845;51.444;7.460;2022-10-29T11:01:29;12.63;;;3.67;;
59054;SDS011;44845;51.444;7.460;2022-10-29T11:04:04;12.35;;;3.95;;
59054;SDS011;44845;51.444;7.460;2022-10-29T11:06:37;14.02;;;3.25;;
59054;SDS011;44845;51.444;7.460;2022-10-29T11:09:17;13.88;;;3.33;;
59054;SDS011;44845;51.444;7.460;2022-10-29T11:11:49;9.73;;;3.20;;
59054;SDS011;44845;51.444;7.460;2022-10-29T11:14:24;12.65;;;3.50;;
59054;SDS011;44845;51.444;7.460;2022-10-29T11:16:54;14.43;;;3.40;;
59054;SDS011;44845;51.444;7.460;2022-10-29T11:19:39;12.40;;;4.25;;
59054;SDS011;44845;51.444;7.460;2022-10-29T11:24:58;15.65;;;3.15;;
59054;SDS011;44845;51.444;7.460;2022-10-29T11:27:33;12.73;;;3.03;;
59054;SDS011;44845;51.444;7.460;2022-10-29T11:30:09;16.58;;;3.15;;
59054;SDS011;44845;51.444;7.460;2022-10-29T11:38:12;14.90;;;3.33;;
59054;SDS011;44845;51.444;7.460;2022-10-29T11:40:52;21.00;;;3.50;;
59054;SDS011;44845;51.444;7.460;2022-10-29T11:43:23;11.07;;;3.30;;
59054;SDS011;44845;51.444;7.460;2022-10-29T11:45:57;16.55;;;3.42;;
59054;SDS011;44845;51.444;7.460;2022-10-29T11:48:33;18.45;;;3.58;;
59054;SDS011;44845;51.444;7.460;2022-10-29T11:51:55;16.45;;;3.45;;
59054;SDS011;44845;51.444;7.460;2022-10-29T11:53:58;17.98;;;3.75;;
59054;SDS011;44845;51.444;7.460;2022-10-29T11:59:22;9.67;;;3.10;;
59054;SDS011;44845;51.444;7.460;2022-10-29T12:05:01;18.23;;;3.33;;
59054;SDS011;44845;51.444;7.460;2022-10-29T12:10:11;16.83;;;3.13;;
59054;SDS011;44845;51.444;7.460;2022-10-29T12:12:52;15.50;;;3.33;;
59054;SDS011;44845;51.444;7.460;2022-10-29T12:21:27;14.88;;;3.38;;
59054;SDS011;44845;51.444;7.460;2022-10-29T12:24:12;13.30;;;3.67;;
59054;SDS011;44845;51.444;7.460;2022-10-29T12:26:49;22.98;;;3.58;;
59054;SDS011;44845;51.444;7.460;2022-10-29T12:32:00;15.48;;;3.67;;
59054;SDS011;44845;51.444;7.460;2022-10-29T12:34:44;16.13;;;3.33;;
59054;SDS011;44845;51.444;7.460;2022-10-29T12:37:28;10.52;;;3.17;;
59054;SDS011;44845;51.444;7.460;2022-10-29T12:40:13;17.70;;;3.58;;
59054;SDS011;44845;51.444;7.460;2022-10-29T12:42:44;14.73;;;3.22;;
59054;SDS011;44845;51.444;7.460;2022-10-29T12:53:24;13.82;;;3.80;;
59054;SDS011;44845;51.444;7.460;2022-10-29T12:55:55;13.80;;;3.25;;
59054;SDS011;44845;51.444;7.460;2022-10-29T13:09:25;11.77;;;2.75;;
59054;SDS011;44845;51.444;7.460;2022-10-29T13:11:56;13.23;;;3.00;;
59054;SDS011;44845;51.444;7.460;2022-10-29T13:14:29;11.45;;;3.20;;
59054;SDS011;44845;51.444;7.460;2022-10-29T13:17:33;17.58;;;3.25;;
59054;SDS011;44845;51.444;7.460;2022-10-29T13:20:06;16.17;;;3.20;;
59054;SDS011;44845;51.444;7.460;2022-10-29T13:25:27;17.15;;;3.17;;
59054;SDS011;44845;51.444;7.460;2022-10-29T13:30:33;14.32;;;2.75;;
59054;SDS011;44845;51.444;7.460;2022-10-29T13:33:00;15.38;;;3.20;;
59054;SDS011;44845;51.444;7.460;2022-10-29T13:35:50;9.70;;;3.13;;
59054;SDS011;44845;51.444;7.460;2022-10-29T13:43:41;17.00;;;3.37;;
59054;SDS011;44845;51.444;7.460;2022-10-29T13:46:20;13.95;;;3.58;;
59054;SDS011;44845;51.444;7.460;2022-10-29T13:48:50;9.10;;;3.15;;
59054;SDS011;44845;51.444;7.460;2022-10-29T13:51:24;12.82;;;4.35;;
59054;SDS011;44845;51.444;7.460;2022-10-29T13:53:59;18.65;;;3.85;;
59054;SDS011;44845;51.444;7.460;2022-10-29T13:56:34;12.45;;;3.45;;
59054;SDS011;44845;51.444;7.460;2022-10-29T13:59:07;15.80;;;3.53;;
59054;SDS011;44845;51.444;7.460;2022-10-29T14:01:39;14.13;;;3.63;;
59054;SDS011;44845;51.444;7.460;2022-10-29T14:04:22;9.13;;;2.60;;
59054;SDS011;44845;51.444;7.460;2022-10-29T14:06:54;18.08;;;3.55;;
59054;SDS011;44845;51.444;7.460;2022-10-29T14:09:22;19.23;;;3.78;;
59054;SDS011;44845;51.444;7.460;2022-10-29T14:12:00;10.65;;;3.05;;
59054;SDS011;44845;51.444;7.460;2022-10-29T14:14:43;14.25;;;3.40;;
59054;SDS011;44845;51.444;7.460;2022-10-29T14:17:17;22.35;;;3.75;;
59054;SDS011;44845;51.444;7.460;2022-10-29T14:19:51;11.77;;;2.83;;
59054;SDS011;44845;51.444;7.460;2022-10-29T14:24:42;14.87;;;3.47;;
59054;SDS011;44845;51.444;7.460;2022-10-29T14:27:10;19.55;;;3.40;;
59054;SDS011;44845;51.444;7.460;2022-10-29T14:29:38;16.80;;;3.70;;
59054;SDS011;44845;51.444;7.460;2022-10-29T14:32:04;12.77;;;3.60;;
59054;SDS011;44845;51.444;7.460;2022-10-29T14:34:30;14.55;;;4.00;;
59054;SDS011;44845;51.444;7.460;2022-10-29T14:37:00;12.20;;;3.33;;
59054;SDS011;44845;51.444;7.460;2022-10-29T14:39:33;10.38;;;3.20;;
59054;SDS011;44845;51.444;7.460;2022-10-29T14:41:59;13.68;;;3.78;;
59054;SDS011;44845;51.444;7.460;2022-10-29T14:44:29;10.10;;;3.28;;
59054;SDS011;44845;51.444;7.460;2022-10-29T14:47:03;17.30;;;3.30;;
59054;SDS011;44845;51.444;7.460;2022-10-29T14:49:29;8.40;;;3.70;;
59054;SDS011;44845;51.444;7.460;2022-10-29T14:51:58;14.05;;;3.13;;
59054;SDS011;44845;51.444;7.460;2022-10-29T14:54:28;17.10;;;3.55;;
59054;SDS011;44845;51.444;7.460;2022-10-29T14:57:05;12.38;;;3.20;;
59054;SDS011;44845;51.444;7.460;2022-10-29T14:59:35;13.85;;;3.35;;
59054;SDS011;44845;51.444;7.460;2022-10-29T15:02:03;9.43;;;3.40;;
59054;SDS011;44845;51.444;7.460;2022-10-29T15:04:34;17.40;;;3.30;;
59054;SDS011;44845;51.444;7.460;2022-10-29T15:09:47;10.10;;;3.08;;
59054;SDS011;44845;51.444;7.460;2022-10-29T15:12:23;8.68;;;3.38;;
59054;SDS011;44845;51.444;7.460;2022-10-29T15:14:52;13.00;;;3.58;;
59054;SDS011;44845;51.444;7.460;2022-10-29T15:17:28;15.27;;;3.42;;
59054;SDS011;44845;51.444;7.460;2022-10-29T15:19:57;24.33;;;4.28;;
59054;SDS011;44845;51.444;7.460;2022-10-29T15:22:35;16.42;;;4.25;;
59054;SDS011;44845;51.444;7.460;2022-10-29T15:25:03;16.38;;;4.00;;
59054;SDS011;44845;51.444;7.460;2022-10-29T15:27:34;12.98;;;3.70;;
59054;SDS011;44845;51.444;7.460;2022-10-29T15:30:00;16.42;;;3.20;;
59054;SDS011;44845;51.444;7.460;2022-10-29T15:32:27;15.27;;;4.20;;
59054;SDS011;44845;51.444;7.460;2022-10-29T15:34:53;14.13;;;3.90;;
59054;SDS011;44845;51.444;7.460;2022-10-29T15:42:33;16.45;;;4.00;;
59054;SDS011;44845;51.444;7.460;2022-10-29T15:47:30;14.70;;;4.20;;
59054;SDS011;44845;51.444;7.460;2022-10-29T15:49:55;13.80;;;3.80;;
59054;SDS011;44845;51.444;7.460;2022-10-29T15:52:22;20.30;;;4.40;;
59054;SDS011;44845;51.444;7.460;2022-10-29T15:54:52;14.18;;;3.72;;
59054;SDS011;44845;51.444;7.460;2022-10-29T15:57:18;14.25;;;3.58;;
59054;SDS011;44845;51.444;7.460;2022-10-29T15:59:43;12.75;;;3.28;;
59054;SDS011;44845;51.444;7.460;2022-10-29T16:02:09;16.13;;;3.67;;
59054;SDS011;44845;51.444;7.460;2022-10-29T16:04:36;9.18;;;3.17;;
59054;SDS011;44845;51.444;7.460;2022-10-29T16:07:01;21.48;;;3.60;;
59054;SDS011;44845;51.444;7.460;2022-10-29T16:09:27;19.80;;;3.80;;
59054;SDS011;44845;51.444;7.460;2022-10-29T16:11:52;11.55;;;3.58;;
59054;SDS011;44845;51.444;7.460;2022-10-29T16:14:17;14.50;;;3.28;;
59054;SDS011;44845;51.444;7.460;2022-10-29T16:16:43;12.57;;;3.28;;
59054;SDS011;44845;51.444;7.460;2022-10-29T16:19:08;13.60;;;3.63;;
59054;SDS011;44845;51.444;7.460;2022-10-29T16:21:33;17.17;;;3.38;;
59054;SDS011;44845;51.444;7.460;2022-10-29T16:23:59;19.02;;;3.58;;
59054;SDS011;44845;51.444;7.460;2022-10-29T16:26:24;18.00;;;3.13;;
59054;SDS011;44845;51.444;7.460;2022-10-29T16:28:50;20.73;;;3.40;;
59054;SDS011;44845;51.444;7.460;2022-10-29T16:31:18;16.35;;;2.90;;
59054;SDS011;44845;51.444;7.460;2022-10-29T16:33:44;10.48;;;2.92;;
59054;SDS011;44845;51.444;7.460;2022-10-29T16:36:13;16.02;;;3.33;;
59054;SDS011;44845;51.444;7.460;2022-10-29T16:38:39;11.55;;;3.50;;
59054;SDS011;44845;51.444;7.460;2022-10-29T16:41:04;14.98;;;3.05;;
59054;SDS011;44845;51.444;7.460;2022-10-29T16:43:30;14.77;;;3.30;;
59054;SDS011;44845;51.444;7.460;2022-10-29T16:45:55;13.27;;;3.88;;
59054;SDS011;44845;51.444;7.460;2022-10-29T16:48:20;16.77;;;3.20;;
59054;SDS011;44845;51.444;7.460;2022-10-29T16:50:46;18.02;;;3.90;;
59054;SDS011;44845;51.444;7.460;2022-10-29T16:53:11;15.07;;;3.20;;
59054;SDS011;44845;51.444;7.460;2022-10-29T16:55:37;12.68;;;3.30;;
59054;SDS011;44845;51.444;7.460;2022-10-29T16:58:07;13.90;;;2.85;;
59054;SDS011;44845;51.444;7.460;2022-10-29T17:00:35;7.90;;;3.30;;
59054;SDS011;44845;51.444;7.460;2022-10-29T17:03:01;12.73;;;3.35;;